sensor_id;sensor_type;location;lat;lon;timestamp;temperature;humidity
23801;DHT22;12081;48.614;10.226;2023-06-14T00:01:51;13.30;99.90
23801;DHT22;12081;48.614;10.226;2023-06-14T00:04:35;11.10;99.90
23801;DHT22;12081;48.614;10.226;2023-06-14T00:07:37;11.20;99.60
23801;DHT22;12081;48.614;10.226;2023-06-14T00:10:22;11.30;98.80
23801;DHT22;12081;48.614;10.226;2023-06-14T00:13:06;11.20;98.50
23801;DHT22;12081;48.614;10.226;2023-06-14T00:15:51;11.20;98.50
23801;DHT22;12081;48.614;10.226;2023-06-14T00:18:38;11.20;98.40
23801;DHT22;12081;48.614;10.226;2023-06-14T00:21:22;11.20;98.40
23801;DHT22;12081;48.614;10.226;2023-06-14T00:24:07;11.20;97.80
23801;DHT22;12081;48.614;10.226;2023-06-14T00:26:51;11.20;98.00
23801;DHT22;12081;48.614;10.226;2023-06-14T00:29:35;11.20;97.90
23801;DHT22;12081;48.614;10.226;2023-06-14T00:32:19;11.40;97.70
23801;DHT22;12081;48.614;10.226;2023-06-14T00:35:09;11.10;97.40
23801;DHT22;12081;48.614;10.226;2023-06-14T00:37:53;11.20;97.00
23801;DHT22;12081;48.614;10.226;2023-06-14T00:40:39;11.10;96.50
23801;DHT22;12081;48.614;10.226;2023-06-14T00:43:23;11.10;95.90
23801;DHT22;12081;48.614;10.226;2023-06-14T00:46:07;11.10;96.10
23801;DHT22;12081;48.614;10.226;2023-06-14T00:48:52;11.10;96.40
23801;DHT22;12081;48.614;10.226;2023-06-14T00:51:37;11.00;97.30
23801;DHT22;12081;48.614;10.226;2023-06-14T00:54:21;11.00;98.40
23801;DHT22;12081;48.614;10.226;2023-06-14T00:57:05;10.90;98.50
23801;DHT22;12081;48.614;10.226;2023-06-14T00:59:50;10.90;98.60
23801;DHT22;12081;48.614;10.226;2023-06-14T01:02:38;10.80;99.20
23801;DHT22;12081;48.614;10.226;2023-06-14T01:05:23;10.70;99.30
23801;DHT22;12081;48.614;10.226;2023-06-14T01:11:28;10.60;99.50
23801;DHT22;12081;48.614;10.226;2023-06-14T01:14:16;10.60;99.90
23801;DHT22;12081;48.614;10.226;2023-06-14T01:17:02;10.70;99.90
23801;DHT22;12081;48.614;10.226;2023-06-14T01:19:46;10.70;99.90
23801;DHT22;12081;48.614;10.226;2023-06-14T01:22:30;10.60;99.90
23801;DHT22;12081;48.614;10.226;2023-06-14T01:25:15;10.60;99.90
23801;DHT22;12081;48.614;10.226;2023-06-14T01:28:03;10.50;99.90
23801;DHT22;12081;48.614;10.226;2023-06-14T01:30:53;10.50;99.90
23801;DHT22;12081;48.614;10.226;2023-06-14T01:33:39;10.50;99.90
23801;DHT22;12081;48.614;10.226;2023-06-14T01:36:26;10.40;99.90
23801;DHT22;12081;48.614;10.226;2023-06-14T01:39:14;10.40;99.90
23801;DHT22;12081;48.614;10.226;2023-06-14T01:41:59;10.30;99.90
23801;DHT22;12081;48.614;10.226;2023-06-14T01:44:44;10.20;99.90
23801;DHT22;12081;48.614;10.226;2023-06-14T01:47:30;10.10;99.90
23801;DHT22;12081;48.614;10.226;2023-06-14T01:50:14;9.90;99.90
23801;DHT22;12081;48.614;10.226;2023-06-14T01:52:59;9.80;99.90
23801;DHT22;12081;48.614;10.226;2023-06-14T01:55:43;9.80;99.90
23801;DHT22;12081;48.614;10.226;2023-06-14T01:58:28;10.20;99.90
23801;DHT22;12081;48.614;10.226;2023-06-14T02:01:12;9.70;99.90
23801;DHT22;12081;48.614;10.226;2023-06-14T02:03:56;9.70;99.90
23801;DHT22;12081;48.614;10.226;2023-06-14T02:06:40;9.70;99.90
23801;DHT22;12081;48.614;10.226;2023-06-14T02:09:24;9.70;99.90
23801;DHT22;12081;48.614;10.226;2023-06-14T02:12:09;9.70;99.90
23801;DHT22;12081;48.614;10.226;2023-06-14T02:14:54;9.70;99.90
23801;DHT22;12081;48.614;10.226;2023-06-14T02:17:40;9.70;99.90
23801;DHT22;12081;48.614;10.226;2023-06-14T02:20:25;11.50;99.90
23801;DHT22;12081;48.614;10.226;2023-06-14T02:23:10;9.70;99.90
23801;DHT22;12081;48.614;10.226;2023-06-14T02:25:54;9.60;99.90
23801;DHT22;12081;48.614;10.226;2023-06-14T02:28:38;9.60;99.90
23801;DHT22;12081;48.614;10.226;2023-06-14T02:31:21;9.60;99.90
23801;DHT22;12081;48.614;10.226;2023-06-14T02:34:06;9.60;99.90
23801;DHT22;12081;48.614;10.226;2023-06-14T02:36:52;9.50;99.90
23801;DHT22;12081;48.614;10.226;2023-06-14T02:39:36;9.40;99.90
23801;DHT22;12081;48.614;10.226;2023-06-14T05:31:35;13.00;99.90
23801;DHT22;12081;48.614;10.226;2023-06-14T05:34:19;14.90;99.90
23801;DHT22;12081;48.614;10.226;2023-06-14T05:37:03;13.30;99.90
23801;DHT22;12081;48.614;10.226;2023-06-14T05:39:48;13.40;99.90
23801;DHT22;12081;48.614;10.226;2023-06-14T05:42:33;13.50;99.90
23801;DHT22;12081;48.614;10.226;2023-06-14T05:45:17;13.60;99.90
23801;DHT22;12081;48.614;10.226;2023-06-14T05:48:01;13.80;99.90
23801;DHT22;12081;48.614;10.226;2023-06-14T05:50:45;13.90;99.90
23801;DHT22;12081;48.614;10.226;2023-06-14T05:53:29;14.20;99.90
23801;DHT22;12081;48.614;10.226;2023-06-14T05:56:14;14.20;99.90
23801;DHT22;12081;48.614;10.226;2023-06-14T05:58:58;14.60;99.90
23801;DHT22;12081;48.614;10.226;2023-06-14T06:01:42;14.50;99.90
23801;DHT22;12081;48.614;10.226;2023-06-14T06:04:27;14.80;99.90
23801;DHT22;12081;48.614;10.226;2023-06-14T06:07:11;14.80;99.60
23801;DHT22;12081;48.614;10.226;2023-06-14T06:09:56;15.90;99.90
23801;DHT22;12081;48.614;10.226;2023-06-14T06:12:42;15.20;98.50
23801;DHT22;12081;48.614;10.226;2023-06-14T06:15:26;15.30;97.80
23801;DHT22;12081;48.614;10.226;2023-06-14T06:18:10;16.30;97.70
23801;DHT22;12081;48.614;10.226;2023-06-14T06:20:54;15.60;96.70
23801;DHT22;12081;48.614;10.226;2023-06-14T06:23:39;16.00;95.80
23801;DHT22;12081;48.614;10.226;2023-06-14T06:26:23;15.90;95.50
23801;DHT22;12081;48.614;10.226;2023-06-14T06:29:07;15.90;95.20
23801;DHT22;12081;48.614;10.226;2023-06-14T06:31:52;16.40;94.40
23801;DHT22;12081;48.614;10.226;2023-06-14T06:34:36;15.90;94.70
23801;DHT22;12081;48.614;10.226;2023-06-14T06:37:21;16.00;94.50
23801;DHT22;12081;48.614;10.226;2023-06-14T06:40:05;16.40;94.30
23801;DHT22;12081;48.614;10.226;2023-06-14T06:42:49;16.40;94.00
23801;DHT22;12081;48.614;10.226;2023-06-14T06:45:34;16.50;92.70
23801;DHT22;12081;48.614;10.226;2023-06-14T06:48:18;16.70;93.80
23801;DHT22;12081;48.614;10.226;2023-06-14T06:51:02;16.90;93.10
23801;DHT22;12081;48.614;10.226;2023-06-14T06:53:52;17.00;92.90
23801;DHT22;12081;48.614;10.226;2023-06-14T06:56:37;17.60;92.40
23801;DHT22;12081;48.614;10.226;2023-06-14T06:59:21;17.50;91.30
23801;DHT22;12081;48.614;10.226;2023-06-14T07:02:06;17.60;90.50
23801;DHT22;12081;48.614;10.226;2023-06-14T07:04:50;18.50;87.50
23801;DHT22;12081;48.614;10.226;2023-06-14T07:07:34;18.50;87.30
23801;DHT22;12081;48.614;10.226;2023-06-14T07:10:18;19.10;83.50
23801;DHT22;12081;48.614;10.226;2023-06-14T07:13:03;19.40;79.30
23801;DHT22;12081;48.614;10.226;2023-06-14T07:15:47;20.10;75.00
23801;DHT22;12081;48.614;10.226;2023-06-14T07:18:32;20.60;71.70
23801;DHT22;12081;48.614;10.226;2023-06-14T07:21:16;21.00;68.30
23801;DHT22;12081;48.614;10.226;2023-06-14T07:24:00;21.30;66.50
23801;DHT22;12081;48.614;10.226;2023-06-14T07:26:44;21.80;65.60
23801;DHT22;12081;48.614;10.226;2023-06-14T07:29:28;22.20;60.90
23801;DHT22;12081;48.614;10.226;2023-06-14T07:32:12;22.40;61.10
23801;DHT22;12081;48.614;10.226;2023-06-14T07:34:56;22.90;59.90
23801;DHT22;12081;48.614;10.226;2023-06-14T07:37:41;23.20;57.10
23801;DHT22;12081;48.614;10.226;2023-06-14T07:40:25;23.30;57.20
23801;DHT22;12081;48.614;10.226;2023-06-14T07:43:09;23.20;56.50
23801;DHT22;12081;48.614;10.226;2023-06-14T07:45:53;23.60;56.50
23801;DHT22;12081;48.614;10.226;2023-06-14T07:48:37;24.80;56.20
23801;DHT22;12081;48.614;10.226;2023-06-14T07:51:21;24.20;54.90
23801;DHT22;12081;48.614;10.226;2023-06-14T07:54:06;24.40;54.50
23801;DHT22;12081;48.614;10.226;2023-06-14T07:56:52;25.30;52.60
23801;DHT22;12081;48.614;10.226;2023-06-14T07:59:36;25.00;51.40
23801;DHT22;12081;48.614;10.226;2023-06-14T08:02:21;25.50;51.20
23801;DHT22;12081;48.614;10.226;2023-06-14T08:05:05;25.80;50.20
23801;DHT22;12081;48.614;10.226;2023-06-14T08:07:49;25.60;49.30
23801;DHT22;12081;48.614;10.226;2023-06-14T08:10:33;25.90;48.10
23801;DHT22;12081;48.614;10.226;2023-06-14T08:13:18;26.10;48.70
23801;DHT22;12081;48.614;10.226;2023-06-14T08:16:02;26.20;47.80
23801;DHT22;12081;48.614;10.226;2023-06-14T08:18:48;26.20;47.90
23801;DHT22;12081;48.614;10.226;2023-06-14T08:21:33;26.70;47.00
23801;DHT22;12081;48.614;10.226;2023-06-14T08:24:17;26.70;47.10
23801;DHT22;12081;48.614;10.226;2023-06-14T08:27:02;27.00;45.50
23801;DHT22;12081;48.614;10.226;2023-06-14T08:29:46;27.40;46.30
23801;DHT22;12081;48.614;10.226;2023-06-14T08:32:30;27.70;46.00
23801;DHT22;12081;48.614;10.226;2023-06-14T08:35:14;27.80;45.00
23801;DHT22;12081;48.614;10.226;2023-06-14T08:38:00;28.00;44.80
23801;DHT22;12081;48.614;10.226;2023-06-14T08:40:45;28.20;46.00
23801;DHT22;12081;48.614;10.226;2023-06-14T08:43:32;28.10;44.70
23801;DHT22;12081;48.614;10.226;2023-06-14T08:46:18;28.20;43.60
23801;DHT22;12081;48.614;10.226;2023-06-14T08:49:04;28.40;43.90
23801;DHT22;12081;48.614;10.226;2023-06-14T08:51:56;28.20;43.60
23801;DHT22;12081;48.614;10.226;2023-06-14T08:54:41;28.20;43.10
23801;DHT22;12081;48.614;10.226;2023-06-14T08:57:27;28.10;43.40
23801;DHT22;12081;48.614;10.226;2023-06-14T09:00:14;28.30;43.50
23801;DHT22;12081;48.614;10.226;2023-06-14T09:02:59;28.50;42.20
23801;DHT22;12081;48.614;10.226;2023-06-14T09:05:43;28.80;41.50
23801;DHT22;12081;48.614;10.226;2023-06-14T09:08:28;28.70;41.10
23801;DHT22;12081;48.614;10.226;2023-06-14T09:11:16;28.50;43.60
23801;DHT22;12081;48.614;10.226;2023-06-14T09:14:02;29.00;41.80
23801;DHT22;12081;48.614;10.226;2023-06-14T09:16:47;29.20;41.80
23801;DHT22;12081;48.614;10.226;2023-06-14T09:19:31;29.20;42.30
23801;DHT22;12081;48.614;10.226;2023-06-14T09:22:16;29.40;42.10
23801;DHT22;12081;48.614;10.226;2023-06-14T09:25:01;29.20;40.80
23801;DHT22;12081;48.614;10.226;2023-06-14T09:27:47;28.80;40.60
23801;DHT22;12081;48.614;10.226;2023-06-14T09:30:30;29.00;40.80
23801;DHT22;12081;48.614;10.226;2023-06-14T09:33:17;28.90;38.60
23801;DHT22;12081;48.614;10.226;2023-06-14T09:36:03;29.10;37.60
23801;DHT22;12081;48.614;10.226;2023-06-14T09:38:58;29.40;40.10
23801;DHT22;12081;48.614;10.226;2023-06-14T09:41:42;29.80;39.50
23801;DHT22;12081;48.614;10.226;2023-06-14T09:44:27;29.80;38.70
23801;DHT22;12081;48.614;10.226;2023-06-14T09:47:12;29.60;39.50
23801;DHT22;12081;48.614;10.226;2023-06-14T09:49:57;29.60;37.80
23801;DHT22;12081;48.614;10.226;2023-06-14T09:52:43;29.60;36.50
23801;DHT22;12081;48.614;10.226;2023-06-14T09:55:30;29.20;37.40
23801;DHT22;12081;48.614;10.226;2023-06-14T09:58:20;29.10;38.10
23801;DHT22;12081;48.614;10.226;2023-06-14T10:01:08;29.40;36.50
23801;DHT22;12081;48.614;10.226;2023-06-14T10:03:55;29.60;37.60
23801;DHT22;12081;48.614;10.226;2023-06-14T10:06:46;30.20;36.90
23801;DHT22;12081;48.614;10.226;2023-06-14T10:09:30;30.80;37.00
23801;DHT22;12081;48.614;10.226;2023-06-14T10:12:19;30.40;36.80
23801;DHT22;12081;48.614;10.226;2023-06-14T10:15:09;30.00;37.50
23801;DHT22;12081;48.614;10.226;2023-06-14T10:24:20;31.20;36.90
23801;DHT22;12081;48.614;10.226;2023-06-14T10:27:09;31.10;35.30
23801;DHT22;12081;48.614;10.226;2023-06-14T10:33:06;28.20;37.30
23801;DHT22;12081;48.614;10.226;2023-06-14T10:36:07;27.40;38.90
23801;DHT22;12081;48.614;10.226;2023-06-14T10:39:14;27.70;39.70
23801;DHT22;12081;48.614;10.226;2023-06-14T10:42:02;28.40;37.50
23801;DHT22;12081;48.614;10.226;2023-06-14T10:44:53;29.10;37.30
23801;DHT22;12081;48.614;10.226;2023-06-14T10:47:39;30.20;37.80
23801;DHT22;12081;48.614;10.226;2023-06-14T10:50:30;30.90;35.00
23801;DHT22;12081;48.614;10.226;2023-06-14T10:53:23;31.20;34.60
23801;DHT22;12081;48.614;10.226;2023-06-14T10:56:08;31.20;34.00
23801;DHT22;12081;48.614;10.226;2023-06-14T10:58:52;31.40;33.80
23801;DHT22;12081;48.614;10.226;2023-06-14T11:01:57;31.60;33.60
23801;DHT22;12081;48.614;10.226;2023-06-14T11:04:52;30.70;34.70
23801;DHT22;12081;48.614;10.226;2023-06-14T11:08:18;30.00;35.10
23801;DHT22;12081;48.614;10.226;2023-06-14T11:11:10;29.00;36.40
23801;DHT22;12081;48.614;10.226;2023-06-14T11:13:56;28.80;36.70
23801;DHT22;12081;48.614;10.226;2023-06-14T11:16:40;29.40;36.50
23801;DHT22;12081;48.614;10.226;2023-06-14T11:19:25;30.20;36.00
23801;DHT22;12081;48.614;10.226;2023-06-14T11:22:12;30.90;35.10
23801;DHT22;12081;48.614;10.226;2023-06-14T11:24:58;31.30;34.90
23801;DHT22;12081;48.614;10.226;2023-06-14T11:27:48;31.60;34.60
23801;DHT22;12081;48.614;10.226;2023-06-14T11:30:33;31.20;34.20
23801;DHT22;12081;48.614;10.226;2023-06-14T11:33:17;31.80;34.60
23801;DHT22;12081;48.614;10.226;2023-06-14T11:36:06;31.70;34.00
23801;DHT22;12081;48.614;10.226;2023-06-14T11:38:58;31.50;33.80
23801;DHT22;12081;48.614;10.226;2023-06-14T11:41:45;31.60;34.80
23801;DHT22;12081;48.614;10.226;2023-06-14T11:44:29;31.60;32.50
23801;DHT22;12081;48.614;10.226;2023-06-14T11:47:15;32.40;32.60
23801;DHT22;12081;48.614;10.226;2023-06-14T11:50:00;32.30;32.00
23801;DHT22;12081;48.614;10.226;2023-06-14T11:52:44;32.60;33.20
23801;DHT22;12081;48.614;10.226;2023-06-14T11:55:28;32.60;33.10
23801;DHT22;12081;48.614;10.226;2023-06-14T11:58:13;31.60;34.20
23801;DHT22;12081;48.614;10.226;2023-06-14T12:00:57;30.90;34.10
23801;DHT22;12081;48.614;10.226;2023-06-14T12:03:48;30.30;34.60
23801;DHT22;12081;48.614;10.226;2023-06-14T12:06:32;29.80;35.40
23801;DHT22;12081;48.614;10.226;2023-06-14T12:09:17;29.40;35.60
23801;DHT22;12081;48.614;10.226;2023-06-14T12:12:02;29.20;35.60
23801;DHT22;12081;48.614;10.226;2023-06-14T12:14:49;28.80;37.00
23801;DHT22;12081;48.614;10.226;2023-06-14T12:17:36;29.10;36.60
23801;DHT22;12081;48.614;10.226;2023-06-14T12:20:20;30.00;37.00
23801;DHT22;12081;48.614;10.226;2023-06-14T12:23:06;30.20;35.90
23801;DHT22;12081;48.614;10.226;2023-06-14T12:25:50;30.60;34.50
23801;DHT22;12081;48.614;10.226;2023-06-14T12:28:36;31.00;34.00
23801;DHT22;12081;48.614;10.226;2023-06-14T12:31:20;31.50;34.60
23801;DHT22;12081;48.614;10.226;2023-06-14T12:34:04;31.70;33.90
23801;DHT22;12081;48.614;10.226;2023-06-14T12:36:48;31.50;33.40
23801;DHT22;12081;48.614;10.226;2023-06-14T12:39:32;31.60;33.70
23801;DHT22;12081;48.614;10.226;2023-06-14T12:42:16;31.80;34.80
23801;DHT22;12081;48.614;10.226;2023-06-14T12:45:01;31.50;34.20
23801;DHT22;12081;48.614;10.226;2023-06-14T12:47:45;30.80;36.00
23801;DHT22;12081;48.614;10.226;2023-06-14T12:50:29;29.40;36.00
23801;DHT22;12081;48.614;10.226;2023-06-14T12:53:14;28.30;37.60
23801;DHT22;12081;48.614;10.226;2023-06-14T12:55:59;27.30;39.00
23801;DHT22;12081;48.614;10.226;2023-06-14T12:58:43;26.90;39.70
23801;DHT22;12081;48.614;10.226;2023-06-14T13:01:28;26.50;40.00
23801;DHT22;12081;48.614;10.226;2023-06-14T13:04:12;26.10;39.70
23801;DHT22;12081;48.614;10.226;2023-06-14T13:06:56;25.90;40.30
23801;DHT22;12081;48.614;10.226;2023-06-14T13:09:40;25.60;40.60
23801;DHT22;12081;48.614;10.226;2023-06-14T13:12:24;25.30;41.90
23801;DHT22;12081;48.614;10.226;2023-06-14T13:15:09;25.20;41.20
23801;DHT22;12081;48.614;10.226;2023-06-14T13:17:53;25.50;41.50
23801;DHT22;12081;48.614;10.226;2023-06-14T13:20:37;25.60;41.10
23801;DHT22;12081;48.614;10.226;2023-06-14T13:23:21;26.50;42.30
23801;DHT22;12081;48.614;10.226;2023-06-14T13:26:05;25.40;41.10
23801;DHT22;12081;48.614;10.226;2023-06-14T13:28:49;25.10;41.80
23801;DHT22;12081;48.614;10.226;2023-06-14T13:31:35;24.90;41.20
23801;DHT22;12081;48.614;10.226;2023-06-14T13:34:19;24.70;41.60
23801;DHT22;12081;48.614;10.226;2023-06-14T13:37:03;24.40;41.50
23801;DHT22;12081;48.614;10.226;2023-06-14T13:39:47;24.60;42.40
23801;DHT22;12081;48.614;10.226;2023-06-14T13:42:31;25.90;43.10
23801;DHT22;12081;48.614;10.226;2023-06-14T13:45:16;26.10;42.50
23801;DHT22;12081;48.614;10.226;2023-06-14T13:48:01;25.10;42.20
23801;DHT22;12081;48.614;10.226;2023-06-14T13:50:45;25.90;39.80
23801;DHT22;12081;48.614;10.226;2023-06-14T13:53:30;25.70;39.70
23801;DHT22;12081;48.614;10.226;2023-06-14T13:56:15;26.00;41.00
23801;DHT22;12081;48.614;10.226;2023-06-14T13:59:00;26.70;40.10
23801;DHT22;12081;48.614;10.226;2023-06-14T14:01:44;26.70;39.80
23801;DHT22;12081;48.614;10.226;2023-06-14T14:04:28;26.80;40.40
23801;DHT22;12081;48.614;10.226;2023-06-14T14:07:12;26.80;39.60
23801;DHT22;12081;48.614;10.226;2023-06-14T14:09:56;26.70;40.00
23801;DHT22;12081;48.614;10.226;2023-06-14T14:12:41;27.00;40.20
23801;DHT22;12081;48.614;10.226;2023-06-14T14:15:25;27.20;40.10
23801;DHT22;12081;48.614;10.226;2023-06-14T14:18:09;27.10;39.70
23801;DHT22;12081;48.614;10.226;2023-06-14T14:20:54;27.60;40.10
23801;DHT22;12081;48.614;10.226;2023-06-14T14:23:39;27.50;39.60
23801;DHT22;12081;48.614;10.226;2023-06-14T14:26:23;27.40;38.40
23801;DHT22;12081;48.614;10.226;2023-06-14T14:29:08;27.00;38.90
23801;DHT22;12081;48.614;10.226;2023-06-14T14:31:55;27.00;40.00
23801;DHT22;12081;48.614;10.226;2023-06-14T14:34:40;26.90;38.90
23801;DHT22;12081;48.614;10.226;2023-06-14T14:37:25;27.10;39.50
23801;DHT22;12081;48.614;10.226;2023-06-14T14:40:10;27.00;38.40
23801;DHT22;12081;48.614;10.226;2023-06-14T14:42:54;26.90;38.50
23801;DHT22;12081;48.614;10.226;2023-06-14T14:45:38;27.10;38.50
23801;DHT22;12081;48.614;10.226;2023-06-14T14:48:22;26.90;37.80
23801;DHT22;12081;48.614;10.226;2023-06-14T14:51:06;27.20;38.50
23801;DHT22;12081;48.614;10.226;2023-06-14T14:53:50;27.20;38.00
23801;DHT22;12081;48.614;10.226;2023-06-14T14:56:35;27.30;38.90
23801;DHT22;12081;48.614;10.226;2023-06-14T14:59:22;27.20;38.40
23801;DHT22;12081;48.614;10.226;2023-06-14T15:02:06;26.70;38.90
23801;DHT22;12081;48.614;10.226;2023-06-14T15:04:50;26.40;40.40
23801;DHT22;12081;48.614;10.226;2023-06-14T15:07:35;26.30;39.70
23801;DHT22;12081;48.614;10.226;2023-06-14T15:10:19;26.20;40.20
23801;DHT22;12081;48.614;10.226;2023-06-14T15:13:03;26.30;40.50
23801;DHT22;12081;48.614;10.226;2023-06-14T15:15:47;26.20;40.50
23801;DHT22;12081;48.614;10.226;2023-06-14T15:18:31;26.30;40.10
23801;DHT22;12081;48.614;10.226;2023-06-14T15:21:16;26.40;39.90
23801;DHT22;12081;48.614;10.226;2023-06-14T15:24:03;26.40;39.30
23801;DHT22;12081;48.614;10.226;2023-06-14T15:26:47;26.10;39.40
23801;DHT22;12081;48.614;10.226;2023-06-14T15:29:31;26.20;39.50
23801;DHT22;12081;48.614;10.226;2023-06-14T15:32:15;26.30;40.10
23801;DHT22;12081;48.614;10.226;2023-06-14T15:34:59;26.40;38.60
23801;DHT22;12081;48.614;10.226;2023-06-14T15:37:43;26.50;39.10
23801;DHT22;12081;48.614;10.226;2023-06-14T15:40:27;26.40;37.90
23801;DHT22;12081;48.614;10.226;2023-06-14T15:43:14;26.30;39.40
23801;DHT22;12081;48.614;10.226;2023-06-14T15:45:58;26.10;39.40
23801;DHT22;12081;48.614;10.226;2023-06-14T15:48:42;26.10;39.30
23801;DHT22;12081;48.614;10.226;2023-06-14T15:51:26;25.90;39.10
23801;DHT22;12081;48.614;10.226;2023-06-14T15:54:10;26.50;40.20
23801;DHT22;12081;48.614;10.226;2023-06-14T15:56:54;25.70;39.20
23801;DHT22;12081;48.614;10.226;2023-06-14T15:59:38;25.80;38.80
23801;DHT22;12081;48.614;10.226;2023-06-14T16:02:22;25.70;40.60
23801;DHT22;12081;48.614;10.226;2023-06-14T16:05:07;26.30;41.90
23801;DHT22;12081;48.614;10.226;2023-06-14T16:07:51;25.70;42.10
23801;DHT22;12081;48.614;10.226;2023-06-14T16:10:36;25.50;40.90
23801;DHT22;12081;48.614;10.226;2023-06-14T16:13:20;25.30;41.30
23801;DHT22;12081;48.614;10.226;2023-06-14T16:16:04;25.00;41.50
23801;DHT22;12081;48.614;10.226;2023-06-14T16:18:49;24.90;41.90
23801;DHT22;12081;48.614;10.226;2023-06-14T16:21:33;24.80;41.80
23801;DHT22;12081;48.614;10.226;2023-06-14T16:24:20;24.80;41.70
23801;DHT22;12081;48.614;10.226;2023-06-14T16:27:04;24.70;41.50
23801;DHT22;12081;48.614;10.226;2023-06-14T16:29:50;24.70;42.70
23801;DHT22;12081;48.614;10.226;2023-06-14T16:32:34;25.90;43.00
23801;DHT22;12081;48.614;10.226;2023-06-14T16:35:18;24.60;42.40
23801;DHT22;12081;48.614;10.226;2023-06-14T16:38:02;24.50;43.60
23801;DHT22;12081;48.614;10.226;2023-06-14T16:40:46;24.20;43.30
23801;DHT22;12081;48.614;10.226;2023-06-14T16:43:31;24.10;43.70
23801;DHT22;12081;48.614;10.226;2023-06-14T16:46:28;24.00;44.00
23801;DHT22;12081;48.614;10.226;2023-06-14T16:49:13;23.70;44.50
23801;DHT22;12081;48.614;10.226;2023-06-14T16:51:57;23.60;44.50
23801;DHT22;12081;48.614;10.226;2023-06-14T16:54:41;23.60;44.90
23801;DHT22;12081;48.614;10.226;2023-06-14T16:57:25;25.10;45.20
23801;DHT22;12081;48.614;10.226;2023-06-14T17:00:10;23.80;44.20
23801;DHT22;12081;48.614;10.226;2023-06-14T17:02:54;23.50;44.40
23801;DHT22;12081;48.614;10.226;2023-06-14T17:05:56;24.50;45.40
23801;DHT22;12081;48.614;10.226;2023-06-14T17:08:41;23.30;44.90
23801;DHT22;12081;48.614;10.226;2023-06-14T17:11:25;23.30;44.90
23801;DHT22;12081;48.614;10.226;2023-06-14T17:14:09;24.30;46.10
23801;DHT22;12081;48.614;10.226;2023-06-14T17:16:54;23.80;45.90
23801;DHT22;12081;48.614;10.226;2023-06-14T17:19:39;23.20;45.50
23801;DHT22;12081;48.614;10.226;2023-06-14T17:22:23;23.00;45.90
23801;DHT22;12081;48.614;10.226;2023-06-14T17:25:07;23.40;45.90
23801;DHT22;12081;48.614;10.226;2023-06-14T17:27:52;22.90;46.20
23801;DHT22;12081;48.614;10.226;2023-06-14T17:30:36;23.10;46.20
23801;DHT22;12081;48.614;10.226;2023-06-14T17:33:20;22.90;45.80
23801;DHT22;12081;48.614;10.226;2023-06-14T17:36:04;22.70;46.30
23801;DHT22;12081;48.614;10.226;2023-06-14T17:38:48;22.60;46.60
23801;DHT22;12081;48.614;10.226;2023-06-14T17:41:32;22.60;47.10
23801;DHT22;12081;48.614;10.226;2023-06-14T17:44:16;22.50;45.80
23801;DHT22;12081;48.614;10.226;2023-06-14T17:47:00;22.50;46.00
23801;DHT22;12081;48.614;10.226;2023-06-14T17:49:44;22.50;46.00
23801;DHT22;12081;48.614;10.226;2023-06-14T17:52:29;22.60;45.90
23801;DHT22;12081;48.614;10.226;2023-06-14T17:55:13;22.40;46.10
23801;DHT22;12081;48.614;10.226;2023-06-14T17:57:57;22.40;46.70
23801;DHT22;12081;48.614;10.226;2023-06-14T18:00:41;22.30;46.80
23801;DHT22;12081;48.614;10.226;2023-06-14T18:03:25;22.20;46.80
23801;DHT22;12081;48.614;10.226;2023-06-14T18:06:09;22.10;47.80
23801;DHT22;12081;48.614;10.226;2023-06-14T18:08:53;22.00;48.00
23801;DHT22;12081;48.614;10.226;2023-06-14T18:11:37;22.00;47.50
23801;DHT22;12081;48.614;10.226;2023-06-14T18:14:22;21.80;47.70
23801;DHT22;12081;48.614;10.226;2023-06-14T18:17:06;21.80;47.70
23801;DHT22;12081;48.614;10.226;2023-06-14T18:19:50;21.70;48.20
23801;DHT22;12081;48.614;10.226;2023-06-14T18:22:34;21.50;48.40
23801;DHT22;12081;48.614;10.226;2023-06-14T18:25:18;21.40;48.90
23801;DHT22;12081;48.614;10.226;2023-06-14T18:28:02;21.30;49.60
23801;DHT22;12081;48.614;10.226;2023-06-14T18:30:46;21.30;49.90
23801;DHT22;12081;48.614;10.226;2023-06-14T18:33:30;22.00;50.80
23801;DHT22;12081;48.614;10.226;2023-06-14T18:36:14;21.10;50.70
23801;DHT22;12081;48.614;10.226;2023-06-14T18:38:58;21.30;51.00
23801;DHT22;12081;48.614;10.226;2023-06-14T18:41:42;20.90;51.20
23801;DHT22;12081;48.614;10.226;2023-06-14T18:44:26;20.90;51.60
23801;DHT22;12081;48.614;10.226;2023-06-14T18:47:11;20.90;51.60
23801;DHT22;12081;48.614;10.226;2023-06-14T18:49:55;20.70;51.80
23801;DHT22;12081;48.614;10.226;2023-06-14T18:52:39;20.70;52.20
23801;DHT22;12081;48.614;10.226;2023-06-14T18:55:23;20.60;52.40
23801;DHT22;12081;48.614;10.226;2023-06-14T18:58:07;20.50;52.90
23801;DHT22;12081;48.614;10.226;2023-06-14T19:00:51;20.30;53.10
23801;DHT22;12081;48.614;10.226;2023-06-14T19:03:35;20.30;53.90
23801;DHT22;12081;48.614;10.226;2023-06-14T19:06:19;20.20;53.80
23801;DHT22;12081;48.614;10.226;2023-06-14T19:09:03;20.00;54.00
23801;DHT22;12081;48.614;10.226;2023-06-14T19:11:48;19.80;54.30
23801;DHT22;12081;48.614;10.226;2023-06-14T19:14:32;19.90;54.60
23801;DHT22;12081;48.614;10.226;2023-06-14T19:17:16;19.70;54.80
23801;DHT22;12081;48.614;10.226;2023-06-14T19:20:00;19.60;55.30
23801;DHT22;12081;48.614;10.226;2023-06-14T19:22:44;19.50;55.40
23801;DHT22;12081;48.614;10.226;2023-06-14T19:25:28;19.30;56.30
23801;DHT22;12081;48.614;10.226;2023-06-14T19:28:13;19.30;56.90
23801;DHT22;12081;48.614;10.226;2023-06-14T19:30:57;19.10;57.30
23801;DHT22;12081;48.614;10.226;2023-06-14T19:33:41;19.00;57.50
23801;DHT22;12081;48.614;10.226;2023-06-14T19:36:25;18.80;57.60
23801;DHT22;12081;48.614;10.226;2023-06-14T19:39:09;19.00;57.80
23801;DHT22;12081;48.614;10.226;2023-06-14T19:41:53;18.90;58.30
23801;DHT22;12081;48.614;10.226;2023-06-14T19:44:38;18.60;58.40
23801;DHT22;12081;48.614;10.226;2023-06-14T19:47:24;18.70;58.90
23801;DHT22;12081;48.614;10.226;2023-06-14T19:50:09;18.50;59.00
23801;DHT22;12081;48.614;10.226;2023-06-14T19:52:54;18.40;59.30
23801;DHT22;12081;48.614;10.226;2023-06-14T19:55:37;18.30;59.40
23801;DHT22;12081;48.614;10.226;2023-06-14T19:58:22;18.20;59.60
23801;DHT22;12081;48.614;10.226;2023-06-14T20:01:06;18.10;60.10
23801;DHT22;12081;48.614;10.226;2023-06-14T20:03:50;18.00;60.30
23801;DHT22;12081;48.614;10.226;2023-06-14T20:06:34;18.00;60.50
23801;DHT22;12081;48.614;10.226;2023-06-14T20:09:18;17.90;61.20
23801;DHT22;12081;48.614;10.226;2023-06-14T20:12:03;17.80;61.40